sensor_id;sensor_type;location;lat;lon;timestamp;pressure;altitude;pressure_sealevel;temperature;humidity
59531;BME280;45349;48.692;8.186;2023-07-13T00:01:12;150868.13;;;19.21;65.35
59531;BME280;45349;48.692;8.186;2023-07-13T00:03:40;150864.34;;;19.19;64.42
59531;BME280;45349;48.692;8.186;2023-07-13T00:06:12;150846.81;;;19.12;65.05
59531;BME280;45349;48.692;8.186;2023-07-13T00:08:38;150828.06;;;19.04;66.19
59531;BME280;45349;48.692;8.186;2023-07-13T00:11:12;150820.53;;;19.01;67.76
59531;BME280;45349;48.692;8.186;2023-07-13T00:13:38;150799.25;;;18.92;67.37
59531;BME280;45349;48.692;8.186;2023-07-13T00:16:30;150774.19;;;18.82;68.84
59531;BME280;45349;48.692;8.186;2023-07-13T00:18:58;150751.66;;;18.72;68.74
59531;BME280;45349;48.692;8.186;2023-07-13T00:21:26;150721.63;;;18.60;69.15
59531;BME280;45349;48.692;8.186;2023-07-13T00:23:52;150710.34;;;18.55;70.03
59531;BME280;45349;48.692;8.186;2023-07-13T00:26:19;150686.56;;;18.46;70.56
59531;BME280;45349;48.692;8.186;2023-07-13T00:28:47;150662.81;;;18.36;69.15
59531;BME280;45349;48.692;8.186;2023-07-13T00:31:14;150660.31;;;18.35;70.36
59531;BME280;45349;48.692;8.186;2023-07-13T00:33:40;150634.00;;;18.24;73.11
59531;BME280;45349;48.692;8.186;2023-07-13T00:36:14;150593.97;;;18.07;73.28
59531;BME280;45349;48.692;8.186;2023-07-13T00:38:41;150556.44;;;17.92;72.02
59531;BME280;45349;48.692;8.186;2023-07-13T00:41:12;150520.13;;;17.77;70.97
59531;BME280;45349;48.692;8.186;2023-07-13T00:43:40;150492.59;;;17.65;73.92
59531;BME280;45349;48.692;8.186;2023-07-13T00:46:17;150465.06;;;17.54;77.49
59531;BME280;45349;48.692;8.186;2023-07-13T00:48:46;150455.06;;;17.50;77.09
59531;BME280;45349;48.692;8.186;2023-07-13T00:51:18;150430.09;;;17.39;77.33
59531;BME280;45349;48.692;8.186;2023-07-13T00:53:46;150408.81;;;17.31;77.98
59531;BME280;45349;48.692;8.186;2023-07-13T00:56:13;150381.28;;;17.19;79.21
59531;BME280;45349;48.692;8.186;2023-07-13T00:58:40;150363.78;;;17.12;78.60
59531;BME280;45349;48.692;8.186;2023-07-13T01:01:12;150338.75;;;17.02;77.83
59531;BME280;45349;48.692;8.186;2023-07-13T01:03:39;150309.97;;;16.90;77.88
59531;BME280;45349;48.692;8.186;2023-07-13T01:06:13;150274.97;;;16.75;78.80
59531;BME280;45349;48.692;8.186;2023-07-13T01:08:40;150248.72;;;16.64;78.93
59531;BME280;45349;48.692;8.186;2023-07-13T01:11:12;150242.44;;;16.62;79.68
59531;BME280;45349;48.692;8.186;2023-07-13T01:13:40;150236.22;;;16.59;79.03
59531;BME280;45349;48.692;8.186;2023-07-13T01:16:17;150218.72;;;16.52;79.28
59531;BME280;45349;48.692;8.186;2023-07-13T01:18:45;150196.22;;;16.43;79.00
59531;BME280;45349;48.692;8.186;2023-07-13T01:21:13;150192.50;;;16.41;79.53
59531;BME280;45349;48.692;8.186;2023-07-13T01:23:40;150186.22;;;16.38;80.28
59531;BME280;45349;48.692;8.186;2023-07-13T01:26:12;150173.72;;;16.33;79.92
59531;BME280;45349;48.692;8.186;2023-07-13T01:28:38;150150.00;;;16.23;80.47
59531;BME280;45349;48.692;8.186;2023-07-13T01:31:10;150137.50;;;16.18;81.00
59531;BME280;45349;48.692;8.186;2023-07-13T01:33:38;150112.50;;;16.08;82.44
59531;BME280;45349;48.692;8.186;2023-07-13T01:36:07;150112.50;;;16.08;82.92
59531;BME280;45349;48.692;8.186;2023-07-13T01:38:35;150097.50;;;16.02;83.08
59531;BME280;45349;48.692;8.186;2023-07-13T01:41:03;150077.50;;;15.93;83.31
59531;BME280;45349;48.692;8.186;2023-07-13T01:43:31;150063.78;;;15.88;83.50
59531;BME280;45349;48.692;8.186;2023-07-13T01:45:58;150036.22;;;15.76;83.75
59531;BME280;45349;48.692;8.186;2023-07-13T01:48:25;150027.47;;;15.73;83.89
59531;BME280;45349;48.692;8.186;2023-07-13T01:50:52;150021.22;;;15.70;84.28
59531;BME280;45349;48.692;8.186;2023-07-13T01:53:18;150004.97;;;15.63;84.63
59531;BME280;45349;48.692;8.186;2023-07-13T01:55:46;149987.47;;;15.56;84.61
59531;BME280;45349;48.692;8.186;2023-07-13T01:58:14;149974.97;;;15.51;84.87
59531;BME280;45349;48.692;8.186;2023-07-13T02:00:40;149972.47;;;15.50;85.56
59531;BME280;45349;48.692;8.186;2023-07-13T02:03:07;149961.25;;;15.45;85.50
59531;BME280;45349;48.692;8.186;2023-07-13T02:05:33;149954.97;;;15.43;85.72
59531;BME280;45349;48.692;8.186;2023-07-13T02:08:00;149940.03;;;15.37;86.21
59531;BME280;45349;48.692;8.186;2023-07-13T02:10:27;149940.03;;;15.37;85.86
59531;BME280;45349;48.692;8.186;2023-07-13T02:12:55;149942.50;;;15.38;86.82
59531;BME280;45349;48.692;8.186;2023-07-13T02:15:21;149926.28;;;15.31;86.78
59531;BME280;45349;48.692;8.186;2023-07-13T02:17:48;149913.78;;;15.26;87.15
59531;BME280;45349;48.692;8.186;2023-07-13T02:20:15;149901.28;;;15.20;86.85
59531;BME280;45349;48.692;8.186;2023-07-13T02:22:41;149886.31;;;15.14;88.11
59531;BME280;45349;48.692;8.186;2023-07-13T02:25:08;149872.59;;;15.09;88.78
59531;BME280;45349;48.692;8.186;2023-07-13T02:27:35;149851.31;;;15.00;88.59
59531;BME280;45349;48.692;8.186;2023-07-13T02:30:03;149846.31;;;14.98;87.46
59531;BME280;45349;48.692;8.186;2023-07-13T02:32:30;149842.59;;;14.96;87.04
59531;BME280;45349;48.692;8.186;2023-07-13T02:34:56;149842.59;;;14.96;87.62
59531;BME280;45349;48.692;8.186;2023-07-13T02:37:23;149831.34;;;14.91;88.04
59531;BME280;45349;48.692;8.186;2023-07-13T02:39:50;149815.13;;;14.85;88.78
59531;BME280;45349;48.692;8.186;2023-07-13T02:42:16;149797.63;;;14.78;89.96
59531;BME280;45349;48.692;8.186;2023-07-13T02:44:43;149780.16;;;14.70;90.56
59531;BME280;45349;48.692;8.186;2023-07-13T02:47:11;149757.63;;;14.61;89.48
59531;BME280;45349;48.692;8.186;2023-07-13T02:49:38;149736.41;;;14.52;89.77
59531;BME280;45349;48.692;8.186;2023-07-13T02:52:05;149727.66;;;14.49;90.82
59531;BME280;45349;48.692;8.186;2023-07-13T02:54:32;149708.94;;;14.41;90.72
59531;BME280;45349;48.692;8.186;2023-07-13T02:56:59;149706.47;;;14.40;89.86
59531;BME280;45349;48.692;8.186;2023-07-13T02:59:25;149703.97;;;14.39;90.41
59531;BME280;45349;48.692;8.186;2023-07-13T03:01:52;149695.19;;;14.35;90.88
59531;BME280;45349;48.692;8.186;2023-07-13T03:04:20;149682.75;;;14.30;90.73
59531;BME280;45349;48.692;8.186;2023-07-13T03:06:47;149675.25;;;14.27;91.70
59531;BME280;45349;48.692;8.186;2023-07-13T03:09:14;149671.50;;;14.25;91.76
59531;BME280;45349;48.692;8.186;2023-07-13T03:11:45;149674.00;;;14.26;92.53
59531;BME280;45349;48.692;8.186;2023-07-13T03:14:19;149681.47;;;14.29;91.51
59531;BME280;45349;48.692;8.186;2023-07-13T03:16:46;149690.19;;;14.33;90.63
59531;BME280;45349;48.692;8.186;2023-07-13T03:19:13;149681.47;;;14.29;90.12
59531;BME280;45349;48.692;8.186;2023-07-13T03:21:43;149675.25;;;14.27;90.61
59531;BME280;45349;48.692;8.186;2023-07-13T03:24:10;149661.50;;;14.21;90.67
59531;BME280;45349;48.692;8.186;2023-07-13T03:26:38;149655.28;;;14.19;90.41
59531;BME280;45349;48.692;8.186;2023-07-13T03:29:05;149645.31;;;14.14;90.62
59531;BME280;45349;48.692;8.186;2023-07-13T03:31:34;149645.31;;;14.14;92.07
59531;BME280;45349;48.692;8.186;2023-07-13T03:34:01;149661.50;;;14.21;93.90
59531;BME280;45349;48.692;8.186;2023-07-13T03:36:30;149659.00;;;14.20;92.04
59531;BME280;45349;48.692;8.186;2023-07-13T03:39:03;149656.50;;;14.19;92.58
59531;BME280;45349;48.692;8.186;2023-07-13T03:41:46;149660.28;;;14.21;90.84
59531;BME280;45349;48.692;8.186;2023-07-13T03:44:15;149657.78;;;14.20;91.80
59531;BME280;45349;48.692;8.186;2023-07-13T03:46:42;149660.28;;;14.21;90.46
59531;BME280;45349;48.692;8.186;2023-07-13T03:49:09;149657.78;;;14.20;91.39
59531;BME280;45349;48.692;8.186;2023-07-13T03:51:37;149686.47;;;14.31;88.05
59531;BME280;45349;48.692;8.186;2023-07-13T03:54:05;149695.19;;;14.35;88.00
59531;BME280;45349;48.692;8.186;2023-07-13T03:56:32;149677.75;;;14.28;87.25
59531;BME280;45349;48.692;8.186;2023-07-13T03:59:00;149670.28;;;14.25;87.39
59531;BME280;45349;48.692;8.186;2023-07-13T04:01:29;149672.75;;;14.26;88.49
59531;BME280;45349;48.692;8.186;2023-07-13T04:03:55;149676.50;;;14.27;89.01
59531;BME280;45349;48.692;8.186;2023-07-13T04:06:26;149667.78;;;14.24;88.42
59531;BME280;45349;48.692;8.186;2023-07-13T04:08:55;149667.78;;;14.24;89.86
59531;BME280;45349;48.692;8.186;2023-07-13T04:11:25;149647.81;;;14.15;91.46
59531;BME280;45349;48.692;8.186;2023-07-13T04:13:52;149630.31;;;14.08;91.36
59531;BME280;45349;48.692;8.186;2023-07-13T04:16:19;149634.03;;;14.10;90.93
59531;BME280;45349;48.692;8.186;2023-07-13T04:18:46;149626.56;;;14.07;90.59
59531;BME280;45349;48.692;8.186;2023-07-13T04:21:14;149624.06;;;14.06;90.61
59531;BME280;45349;48.692;8.186;2023-07-13T04:23:41;149622.81;;;14.05;91.15
59531;BME280;45349;48.692;8.186;2023-07-13T04:26:12;149634.03;;;14.10;90.85
59531;BME280;45349;48.692;8.186;2023-07-13T04:28:40;149639.03;;;14.12;91.45
59531;BME280;45349;48.692;8.186;2023-07-13T04:31:12;149646.53;;;14.15;90.61
59531;BME280;45349;48.692;8.186;2023-07-13T04:33:39;149657.78;;;14.20;90.96
59531;BME280;45349;48.692;8.186;2023-07-13T04:36:12;149681.47;;;14.29;88.14
59531;BME280;45349;48.692;8.186;2023-07-13T04:38:38;149686.47;;;14.31;88.44
59531;BME280;45349;48.692;8.186;2023-07-13T04:41:30;149716.44;;;14.44;88.57
59531;BME280;45349;48.692;8.186;2023-07-13T04:43:58;149728.94;;;14.49;88.61
59531;BME280;45349;48.692;8.186;2023-07-13T04:46:24;149745.13;;;14.56;88.53
59531;BME280;45349;48.692;8.186;2023-07-13T04:48:51;149766.41;;;14.65;87.53
59531;BME280;45349;48.692;8.186;2023-07-13T04:51:18;149782.66;;;14.71;87.23
59531;BME280;45349;48.692;8.186;2023-07-13T04:53:45;149797.63;;;14.78;87.36
59531;BME280;45349;48.692;8.186;2023-07-13T04:56:12;149811.41;;;14.83;87.82
59531;BME280;45349;48.692;8.186;2023-07-13T04:58:38;149818.84;;;14.86;86.68
59531;BME280;45349;48.692;8.186;2023-07-13T05:01:13;149818.84;;;14.86;87.27
59531;BME280;45349;48.692;8.186;2023-07-13T05:03:40;149815.13;;;14.85;87.00
59531;BME280;45349;48.692;8.186;2023-07-13T05:06:12;149830.13;;;14.91;85.19
59531;BME280;45349;48.692;8.186;2023-07-13T05:08:39;149835.09;;;14.93;85.13
59531;BME280;45349;48.692;8.186;2023-07-13T05:11:12;149845.09;;;14.97;84.27
59531;BME280;45349;48.692;8.186;2023-07-13T05:13:39;149862.59;;;15.04;85.09
59531;BME280;45349;48.692;8.186;2023-07-13T05:16:09;149882.56;;;15.13;84.45
59531;BME280;45349;48.692;8.186;2023-07-13T05:18:37;149886.31;;;15.14;82.89
59531;BME280;45349;48.692;8.186;2023-07-13T05:21:05;149901.28;;;15.20;83.00
59531;BME280;45349;48.692;8.186;2023-07-13T05:23:33;149902.56;;;15.21;85.21
59531;BME280;45349;48.692;8.186;2023-07-13T05:26:01;149912.56;;;15.25;86.27
59531;BME280;45349;48.692;8.186;2023-07-13T05:28:29;149927.53;;;15.31;85.41
59531;BME280;45349;48.692;8.186;2023-07-13T05:30:57;149938.78;;;15.36;85.42
59531;BME280;45349;48.692;8.186;2023-07-13T05:33:24;149961.25;;;15.45;85.28
59531;BME280;45349;48.692;8.186;2023-07-13T05:35:52;149993.75;;;15.59;85.29
59531;BME280;45349;48.692;8.186;2023-07-13T05:38:19;150037.47;;;15.77;84.37
59531;BME280;45349;48.692;8.186;2023-07-13T05:40:46;150082.50;;;15.96;83.61
59531;BME280;45349;48.692;8.186;2023-07-13T05:43:13;150120.00;;;16.11;82.56
59531;BME280;45349;48.692;8.186;2023-07-13T05:45:40;150152.50;;;16.25;82.09
59531;BME280;45349;48.692;8.186;2023-07-13T05:48:07;150183.72;;;16.37;81.35
59531;BME280;45349;48.692;8.186;2023-07-13T05:50:34;150227.44;;;16.56;80.69
59531;BME280;45349;48.692;8.186;2023-07-13T05:53:02;150273.75;;;16.75;79.35
59531;BME280;45349;48.692;8.186;2023-07-13T05:55:28;150323.75;;;16.95;78.75
59531;BME280;45349;48.692;8.186;2023-07-13T05:57:55;150396.28;;;17.25;78.06
59531;BME280;45349;48.692;8.186;2023-07-13T06:00:23;150463.84;;;17.53;77.10
59531;BME280;45349;48.692;8.186;2023-07-13T06:02:50;150525.13;;;17.79;76.12
59531;BME280;45349;48.692;8.186;2023-07-13T06:05:16;150537.63;;;17.84;75.40
59531;BME280;45349;48.692;8.186;2023-07-13T06:07:43;150548.91;;;17.89;75.01
59531;BME280;45349;48.692;8.186;2023-07-13T06:10:11;150551.41;;;17.90;75.01
59531;BME280;45349;48.692;8.186;2023-07-13T06:12:37;150590.22;;;18.06;74.48
59531;BME280;45349;48.692;8.186;2023-07-13T06:15:05;150610.25;;;18.14;74.51
59531;BME280;45349;48.692;8.186;2023-07-13T06:17:32;150617.75;;;18.17;74.10
59531;BME280;45349;48.692;8.186;2023-07-13T06:19:58;150630.28;;;18.22;74.42
59531;BME280;45349;48.692;8.186;2023-07-13T06:22:25;150642.78;;;18.27;74.87
59531;BME280;45349;48.692;8.186;2023-07-13T06:24:52;150669.06;;;18.38;73.23
59531;BME280;45349;48.692;8.186;2023-07-13T06:27:20;150701.59;;;18.52;73.91
59531;BME280;45349;48.692;8.186;2023-07-13T06:29:46;150729.13;;;18.63;73.35
59531;BME280;45349;48.692;8.186;2023-07-13T06:32:13;150730.38;;;18.64;72.97
59531;BME280;45349;48.692;8.186;2023-07-13T06:34:39;150716.63;;;18.58;73.48
59531;BME280;45349;48.692;8.186;2023-07-13T06:37:06;150736.66;;;18.66;73.70
59531;BME280;45349;48.692;8.186;2023-07-13T06:39:33;150771.69;;;18.81;73.92
59531;BME280;45349;48.692;8.186;2023-07-13T06:41:59;150818.03;;;19.00;72.96
59531;BME280;45349;48.692;8.186;2023-07-13T06:44:27;150850.59;;;19.13;72.90
59531;BME280;45349;48.692;8.186;2023-07-13T06:46:54;150898.19;;;19.33;74.26
59531;BME280;45349;48.692;8.186;2023-07-13T06:49:20;150942.00;;;19.51;73.58
59531;BME280;45349;48.692;8.186;2023-07-13T06:51:47;150967.03;;;19.61;72.61
59531;BME280;45349;48.692;8.186;2023-07-13T06:54:14;150965.75;;;19.61;73.70
59531;BME280;45349;48.692;8.186;2023-07-13T06:56:40;150920.72;;;19.42;73.44
59531;BME280;45349;48.692;8.186;2023-07-13T06:59:07;150899.41;;;19.33;72.74
59531;BME280;45349;48.692;8.186;2023-07-13T07:01:35;150928.25;;;19.45;71.46
59531;BME280;45349;48.692;8.186;2023-07-13T07:04:02;150974.56;;;19.65;70.65
59531;BME280;45349;48.692;8.186;2023-07-13T07:06:29;150993.31;;;19.72;72.15
59531;BME280;45349;48.692;8.186;2023-07-13T07:08:56;151042.25;;;19.93;69.75
59531;BME280;45349;48.692;8.186;2023-07-13T07:11:24;151096.09;;;20.15;68.27
59531;BME280;45349;48.692;8.186;2023-07-13T07:13:52;151104.84;;;20.18;69.36
59531;BME280;45349;48.692;8.186;2023-07-13T07:16:19;151156.22;;;20.40;67.54
59531;BME280;45349;48.692;8.186;2023-07-13T07:18:48;151164.97;;;20.43;65.76
59531;BME280;45349;48.692;8.186;2023-07-13T07:21:15;151134.91;;;20.31;63.28
59531;BME280;45349;48.692;8.186;2023-07-13T07:23:42;151122.38;;;20.26;62.29
59531;BME280;45349;48.692;8.186;2023-07-13T07:26:12;151158.72;;;20.41;62.05
59531;BME280;45349;48.692;8.186;2023-07-13T07:28:39;151167.47;;;20.44;61.36
59531;BME280;45349;48.692;8.186;2023-07-13T07:31:30;151162.47;;;20.42;61.95
59531;BME280;45349;48.692;8.186;2023-07-13T07:33:58;151183.78;;;20.51;62.14
59531;BME280;45349;48.692;8.186;2023-07-13T07:36:24;151223.84;;;20.68;61.58
59531;BME280;45349;48.692;8.186;2023-07-13T07:38:51;151261.50;;;20.83;60.24
59531;BME280;45349;48.692;8.186;2023-07-13T07:41:17;151287.84;;;20.94;60.66
59531;BME280;45349;48.692;8.186;2023-07-13T07:43:44;151222.63;;;20.67;60.31
59531;BME280;45349;48.692;8.186;2023-07-13T07:46:12;151228.88;;;20.70;59.74
59531;BME280;45349;48.692;8.186;2023-07-13T07:48:38;151240.16;;;20.74;60.88
59531;BME280;45349;48.692;8.186;2023-07-13T07:51:32;151312.91;;;21.04;59.33
59531;BME280;45349;48.692;8.186;2023-07-13T07:53:58;151352.97;;;21.21;58.97
59531;BME280;45349;48.692;8.186;2023-07-13T07:56:25;151383.06;;;21.33;59.02
59531;BME280;45349;48.692;8.186;2023-07-13T07:58:52;151400.63;;;21.41;58.82
59531;BME280;45349;48.692;8.186;2023-07-13T08:01:18;151426.97;;;21.51;57.48
59531;BME280;45349;48.692;8.186;2023-07-13T08:03:45;151444.53;;;21.59;58.05
59531;BME280;45349;48.692;8.186;2023-07-13T08:06:12;151474.66;;;21.71;58.73
59531;BME280;45349;48.692;8.186;2023-07-13T08:08:40;151473.38;;;21.71;56.16
59531;BME280;45349;48.692;8.186;2023-07-13T08:11:12;151508.50;;;21.85;55.15
59531;BME280;45349;48.692;8.186;2023-07-13T08:13:38;151507.22;;;21.85;53.75
59531;BME280;45349;48.692;8.186;2023-07-13T08:16:09;151497.19;;;21.80;54.70
59531;BME280;45349;48.692;8.186;2023-07-13T08:18:37;151558.66;;;22.06;54.39
59531;BME280;45349;48.692;8.186;2023-07-13T08:21:04;151564.91;;;22.08;51.73
59531;BME280;45349;48.692;8.186;2023-07-13T08:23:31;151531.06;;;21.94;52.12
59531;BME280;45349;48.692;8.186;2023-07-13T08:26:00;151527.28;;;21.93;55.08
59531;BME280;45349;48.692;8.186;2023-07-13T08:28:27;151582.47;;;22.16;53.99
59531;BME280;45349;48.692;8.186;2023-07-13T08:30:54;151541.09;;;21.99;55.98
59531;BME280;45349;48.692;8.186;2023-07-13T08:33:22;151569.91;;;22.10;53.58
59531;BME280;45349;48.692;8.186;2023-07-13T08:35:49;151588.75;;;22.18;52.68
59531;BME280;45349;48.692;8.186;2023-07-13T08:38:16;151597.50;;;22.22;53.38
59531;BME280;45349;48.692;8.186;2023-07-13T08:40:44;151645.19;;;22.41;51.33
59531;BME280;45349;48.692;8.186;2023-07-13T08:43:15;151564.91;;;22.08;51.42
59531;BME280;45349;48.692;8.186;2023-07-13T08:45:44;151577.44;;;22.14;53.16
59531;BME280;45349;48.692;8.186;2023-07-13T08:48:16;151630.13;;;22.35;52.82
59531;BME280;45349;48.692;8.186;2023-07-13T08:50:50;151579.97;;;22.15;51.22
59531;BME280;45349;48.692;8.186;2023-07-13T08:53:18;151571.19;;;22.11;50.94
59531;BME280;45349;48.692;8.186;2023-07-13T08:55:46;151652.75;;;22.45;49.30
59531;BME280;45349;48.692;8.186;2023-07-13T08:58:16;151611.28;;;22.27;48.19
59531;BME280;45349;48.692;8.186;2023-07-13T09:00:48;151657.78;;;22.47;49.55
59531;BME280;45349;48.692;8.186;2023-07-13T09:03:22;151660.28;;;22.48;49.97
59531;BME280;45349;48.692;8.186;2023-07-13T09:05:53;151711.69;;;22.69;46.99
59531;BME280;45349;48.692;8.186;2023-07-13T09:08:38;151744.31;;;22.82;46.63
59531;BME280;45349;48.692;8.186;2023-07-13T09:11:20;151769.41;;;22.93;47.57
59531;BME280;45349;48.692;8.186;2023-07-13T09:13:56;151785.69;;;22.99;46.69
59531;BME280;45349;48.692;8.186;2023-07-13T09:16:27;151810.78;;;23.10;44.72
59531;BME280;45349;48.692;8.186;2023-07-13T09:18:58;151876.09;;;23.37;44.71
59531;BME280;45349;48.692;8.186;2023-07-13T09:21:31;151879.84;;;23.38;44.50
59531;BME280;45349;48.692;8.186;2023-07-13T09:24:01;151876.09;;;23.37;44.82
59531;BME280;45349;48.692;8.186;2023-07-13T09:26:29;151920.00;;;23.55;41.80
59531;BME280;45349;48.692;8.186;2023-07-13T09:29:10;151936.34;;;23.62;41.35
59531;BME280;45349;48.692;8.186;2023-07-13T09:31:42;151843.47;;;23.23;42.82
59531;BME280;45349;48.692;8.186;2023-07-13T09:34:12;151869.78;;;23.34;43.86
59531;BME280;45349;48.692;8.186;2023-07-13T09:36:39;151864.78;;;23.32;43.79
59531;BME280;45349;48.692;8.186;2023-07-13T09:39:24;151913.75;;;23.52;44.79
59531;BME280;45349;48.692;8.186;2023-07-13T09:41:55;151878.59;;;23.38;42.97
59531;BME280;45349;48.692;8.186;2023-07-13T09:44:30;151889.88;;;23.42;43.19
59531;BME280;45349;48.692;8.186;2023-07-13T09:46:58;151888.66;;;23.42;45.09
59531;BME280;45349;48.692;8.186;2023-07-13T09:49:25;151852.28;;;23.27;42.55
59531;BME280;45349;48.692;8.186;2023-07-13T09:51:58;151931.31;;;23.59;43.81
59531;BME280;45349;48.692;8.186;2023-07-13T09:54:26;151889.88;;;23.42;42.56
59531;BME280;45349;48.692;8.186;2023-07-13T09:56:56;151877.31;;;23.37;44.28
59531;BME280;45349;48.692;8.186;2023-07-13T09:59:26;151856.00;;;23.28;43.31
59531;BME280;45349;48.692;8.186;2023-07-13T10:01:54;151843.47;;;23.23;45.61
59531;BME280;45349;48.692;8.186;2023-07-13T10:04:29;151864.78;;;23.32;44.28
59531;BME280;45349;48.692;8.186;2023-07-13T10:07:05;151864.78;;;23.32;43.84
59531;BME280;45349;48.692;8.186;2023-07-13T10:09:32;151928.81;;;23.58;41.82
59531;BME280;45349;48.692;8.186;2023-07-13T10:11:59;151869.78;;;23.34;41.83
59531;BME280;45349;48.692;8.186;2023-07-13T10:14:25;151792.00;;;23.02;43.40
59531;BME280;45349;48.692;8.186;2023-07-13T10:16:59;151778.16;;;22.96;43.04
59531;BME280;45349;48.692;8.186;2023-07-13T10:19:30;151812.06;;;23.10;44.66
59531;BME280;45349;48.692;8.186;2023-07-13T10:22:00;151908.72;;;23.50;41.49
59531;BME280;45349;48.692;8.186;2023-07-13T10:24:29;151936.34;;;23.62;41.85
59531;BME280;45349;48.692;8.186;2023-07-13T10:27:00;151953.91;;;23.69;42.52
59531;BME280;45349;48.692;8.186;2023-07-13T10:29:34;151999.06;;;23.87;42.58
59531;BME280;45349;48.692;8.186;2023-07-13T10:32:08;151999.06;;;23.87;42.57
59531;BME280;45349;48.692;8.186;2023-07-13T10:34:36;152095.81;;;24.27;40.83
59531;BME280;45349;48.692;8.186;2023-07-13T10:37:05;152156.03;;;24.52;41.07
59531;BME280;45349;48.692;8.186;2023-07-13T10:39:34;152171.09;;;24.58;41.27
59531;BME280;45349;48.692;8.186;2023-07-13T10:42:05;152304.28;;;25.13;38.08
59531;BME280;45349;48.692;8.186;2023-07-13T10:44:33;152305.50;;;25.14;39.20
59531;BME280;45349;48.692;8.186;2023-07-13T10:47:02;152314.31;;;25.17;36.35
59531;BME280;45349;48.692;8.186;2023-07-13T10:49:32;152250.25;;;24.91;36.72
59531;BME280;45349;48.692;8.186;2023-07-13T10:52:00;152276.66;;;25.02;37.85
59531;BME280;45349;48.692;8.186;2023-07-13T10:54:30;152301.78;;;25.12;36.04
59531;BME280;45349;48.692;8.186;2023-07-13T10:57:14;152217.63;;;24.78;35.66
59531;BME280;45349;48.692;8.186;2023-07-13T10:59:43;152211.34;;;24.75;37.23
59531;BME280;45349;48.692;8.186;2023-07-13T11:02:21;152208.81;;;24.74;37.57
59531;BME280;45349;48.692;8.186;2023-07-13T11:04:52;152264.09;;;24.97;36.83
59531;BME280;45349;48.692;8.186;2023-07-13T11:07:21;152331.91;;;25.25;38.17
59531;BME280;45349;48.692;8.186;2023-07-13T11:09:52;152343.19;;;25.29;38.37
59531;BME280;45349;48.692;8.186;2023-07-13T11:12:51;152226.41;;;24.81;37.30
59531;BME280;45349;48.692;8.186;2023-07-13T11:15:32;152201.25;;;24.71;37.87
59531;BME280;45349;48.692;8.186;2023-07-13T11:18:02;152231.44;;;24.83;36.89
59531;BME280;45349;48.692;8.186;2023-07-13T11:20:36;152245.28;;;24.89;36.35
59531;BME280;45349;48.692;8.186;2023-07-13T11:25:54;152183.66;;;24.64;36.28
59531;BME280;45349;48.692;8.186;2023-07-13T11:28:23;152177.41;;;24.61;36.80
59531;BME280;45349;48.692;8.186;2023-07-13T11:31:01;152164.84;;;24.56;36.33
59531;BME280;45349;48.692;8.186;2023-07-13T11:33:48;152292.94;;;25.09;35.74
59531;BME280;45349;48.692;8.186;2023-07-13T11:36:18;152363.31;;;25.38;37.22
59531;BME280;45349;48.692;8.186;2023-07-13T11:38:55;152368.31;;;25.40;38.01
59531;BME280;45349;48.692;8.186;2023-07-13T11:41:26;152347.00;;;25.31;35.26
59531;BME280;45349;48.692;8.186;2023-07-13T11:43:55;152517.88;;;26.01;35.57
59531;BME280;45349;48.692;8.186;2023-07-13T11:46:24;152599.59;;;26.35;35.13
59531;BME280;45349;48.692;8.186;2023-07-13T11:48:51;152594.56;;;26.33;34.10
59531;BME280;45349;48.692;8.186;2023-07-13T11:51:22;152548.09;;;26.14;35.12
59531;BME280;45349;48.692;8.186;2023-07-13T11:53:51;152515.38;;;26.00;35.63
59531;BME280;45349;48.692;8.186;2023-07-13T11:56:18;152512.84;;;25.99;35.61
59531;BME280;45349;48.692;8.186;2023-07-13T11:58:48;152548.09;;;26.14;35.54
59531;BME280;45349;48.692;8.186;2023-07-13T12:01:20;152692.63;;;26.73;36.22
59531;BME280;45349;48.692;8.186;2023-07-13T12:03:49;152783.13;;;27.10;33.55
59531;BME280;45349;48.692;8.186;2023-07-13T12:06:27;152823.38;;;27.27;33.42
59531;BME280;45349;48.692;8.186;2023-07-13T12:08:57;152809.56;;;27.21;34.74
59531;BME280;45349;48.692;8.186;2023-07-13T12:11:25;152790.69;;;27.14;34.40
59531;BME280;45349;48.692;8.186;2023-07-13T12:13:52;152799.50;;;27.17;33.10
59531;BME280;45349;48.692;8.186;2023-07-13T12:16:26;152737.91;;;26.92;34.00
59531;BME280;45349;48.692;8.186;2023-07-13T12:18:54;152647.34;;;26.55;35.54
59531;BME280;45349;48.692;8.186;2023-07-13T12:21:30;152624.72;;;26.45;36.45
59531;BME280;45349;48.692;8.186;2023-07-13T12:23:57;152517.88;;;26.01;34.79
59531;BME280;45349;48.692;8.186;2023-07-13T12:26:24;152578.25;;;26.26;34.44
59531;BME280;45349;48.692;8.186;2023-07-13T12:28:52;152585.78;;;26.29;34.93
59531;BME280;45349;48.692;8.186;2023-07-13T12:31:34;152313.03;;;25.17;37.32
59531;BME280;45349;48.692;8.186;2023-07-13T12:34:06;152478.94;;;25.85;35.18
59531;BME280;45349;48.692;8.186;2023-07-13T12:36:36;152418.63;;;25.60;35.79
59531;BME280;45349;48.692;8.186;2023-07-13T12:39:14;152385.97;;;25.47;36.23
59531;BME280;45349;48.692;8.186;2023-07-13T12:41:42;152450.00;;;25.73;36.08
59531;BME280;45349;48.692;8.186;2023-07-13T12:44:15;152335.66;;;25.26;35.59
59531;BME280;45349;48.692;8.186;2023-07-13T12:46:53;152494.03;;;25.91;35.18
59531;BME280;45349;48.692;8.186;2023-07-13T12:49:24;152550.59;;;26.15;35.04
59531;BME280;45349;48.692;8.186;2023-07-13T12:51:56;152553.13;;;26.16;35.15
59531;BME280;45349;48.692;8.186;2023-07-13T12:54:23;152603.38;;;26.36;32.86
59531;BME280;45349;48.692;8.186;2023-07-13T12:56:51;152700.16;;;26.76;34.97
59531;BME280;45349;48.692;8.186;2023-07-13T12:59:22;152675.00;;;26.66;33.06
59531;BME280;45349;48.692;8.186;2023-07-13T13:01:49;152605.91;;;26.37;34.20
59531;BME280;45349;48.692;8.186;2023-07-13T13:04:16;152589.53;;;26.31;33.98